sensor_id;sensor_type;location;lat;lon;timestamp;P1;durP1;ratioP1;P2;durP2;ratioP2
64210;SDS011;50528;48.514;14.394;2022-08-01T00:00:30;5.80;;;3.30;;
64210;SDS011;50528;48.514;14.394;2022-08-01T00:01:42;3.90;;;3.20;;
64210;SDS011;50528;48.514;14.394;2022-08-01T00:02:45;4.60;;;3.20;;
64210;SDS011;50528;48.514;14.394;2022-08-01T00:03:50;7.10;;;3.30;;
64210;SDS011;50528;48.514;14.394;2022-08-01T00:04:56;5.90;;;3.10;;
64210;SDS011;50528;48.514;14.394;2022-08-01T00:06:02;4.30;;;3.20;;
64210;SDS011;50528;48.514;14.394;2022-08-01T00:07:06;4.70;;;3.40;;
64210;SDS011;50528;48.514;14.394;2022-08-01T00:08:10;4.30;;;3.30;;
64210;SDS011;50528;48.514;14.394;2022-08-01T00:09:13;6.80;;;3.50;;
64210;SDS011;50528;48.514;14.394;2022-08-01T00:10:26;6.00;;;3.60;;
64210;SDS011;50528;48.514;14.394;2022-08-01T00:11:29;7.10;;;3.40;;
64210;SDS011;50528;48.514;14.394;2022-08-01T00:12:32;8.10;;;3.70;;
64210;SDS011;50528;48.514;14.394;2022-08-01T00:13:35;6.40;;;3.60;;
64210;SDS011;50528;48.514;14.394;2022-08-01T00:14:38;6.80;;;3.50;;
64210;SDS011;50528;48.514;14.394;2022-08-01T00:15:44;4.40;;;3.70;;
64210;SDS011;50528;48.514;14.394;2022-08-01T00:16:55;6.30;;;3.50;;
64210;SDS011;50528;48.514;14.394;2022-08-01T00:17:58;4.50;;;3.60;;
64210;SDS011;50528;48.514;14.394;2022-08-01T00:19:02;5.40;;;3.90;;
64210;SDS011;50528;48.514;14.394;2022-08-01T00:20:06;4.10;;;3.50;;
64210;SDS011;50528;48.514;14.394;2022-08-01T00:21:10;5.00;;;3.50;;
64210;SDS011;50528;48.514;14.394;2022-08-01T00:22:13;4.90;;;3.40;;
64210;SDS011;50528;48.514;14.394;2022-08-01T00:23:16;4.00;;;3.30;;
64210;SDS011;50528;48.514;14.394;2022-08-01T00:24:20;6.20;;;3.40;;
64210;SDS011;50528;48.514;14.394;2022-08-01T00:25:23;6.30;;;3.20;;
64210;SDS011;50528;48.514;14.394;2022-08-01T00:26:36;4.50;;;3.30;;
64210;SDS011;50528;48.514;14.394;2022-08-01T00:27:39;6.30;;;3.40;;
64210;SDS011;50528;48.514;14.394;2022-08-01T00:28:42;4.00;;;3.20;;
64210;SDS011;50528;48.514;14.394;2022-08-01T00:29:45;7.80;;;3.70;;
64210;SDS011;50528;48.514;14.394;2022-08-01T00:31:08;4.10;;;3.10;;
64210;SDS011;50528;48.514;14.394;2022-08-01T00:32:12;5.90;;;3.40;;
64210;SDS011;50528;48.514;14.394;2022-08-01T00:33:15;4.70;;;3.20;;
64210;SDS011;50528;48.514;14.394;2022-08-01T00:34:18;5.80;;;3.10;;
64210;SDS011;50528;48.514;14.394;2022-08-01T00:35:21;6.00;;;3.20;;
64210;SDS011;50528;48.514;14.394;2022-08-01T00:36:24;3.90;;;2.80;;
64210;SDS011;50528;48.514;14.394;2022-08-01T00:37:28;4.60;;;3.10;;
64210;SDS011;50528;48.514;14.394;2022-08-01T00:38:31;5.40;;;3.40;;
64210;SDS011;50528;48.514;14.394;2022-08-01T00:39:34;5.20;;;3.40;;
64210;SDS011;50528;48.514;14.394;2022-08-01T00:40:39;4.80;;;3.50;;
64210;SDS011;50528;48.514;14.394;2022-08-01T00:41:42;6.90;;;3.60;;
64210;SDS011;50528;48.514;14.394;2022-08-01T00:42:45;9.80;;;3.40;;
64210;SDS011;50528;48.514;14.394;2022-08-01T00:43:49;8.60;;;3.70;;
64210;SDS011;50528;48.514;14.394;2022-08-01T00:44:52;6.40;;;3.40;;
64210;SDS011;50528;48.514;14.394;2022-08-01T00:45:57;4.60;;;3.30;;
64210;SDS011;50528;48.514;14.394;2022-08-01T00:47:01;7.20;;;3.50;;
64210;SDS011;50528;48.514;14.394;2022-08-01T00:48:05;4.50;;;3.40;;
64210;SDS011;50528;48.514;14.394;2022-08-01T00:49:09;4.70;;;3.50;;
64210;SDS011;50528;48.514;14.394;2022-08-01T00:50:12;4.70;;;3.40;;
64210;SDS011;50528;48.514;14.394;2022-08-01T00:51:15;5.60;;;3.20;;
64210;SDS011;50528;48.514;14.394;2022-08-01T00:52:20;5.10;;;3.50;;
64210;SDS011;50528;48.514;14.394;2022-08-01T00:53:23;5.60;;;3.20;;
64210;SDS011;50528;48.514;14.394;2022-08-01T00:54:27;4.50;;;3.50;;
64210;SDS011;50528;48.514;14.394;2022-08-01T00:55:31;4.80;;;3.30;;
64210;SDS011;50528;48.514;14.394;2022-08-01T00:56:34;6.00;;;3.10;;
64210;SDS011;50528;48.514;14.394;2022-08-01T00:57:38;5.00;;;3.30;;
64210;SDS011;50528;48.514;14.394;2022-08-01T00:59:02;3.70;;;3.10;;
64210;SDS011;50528;48.514;14.394;2022-08-01T01:00:06;4.60;;;3.10;;
64210;SDS011;50528;48.514;14.394;2022-08-01T01:01:11;4.00;;;3.30;;
64210;SDS011;50528;48.514;14.394;2022-08-01T01:02:15;4.90;;;3.20;;
64210;SDS011;50528;48.514;14.394;2022-08-01T01:03:18;6.60;;;3.20;;
64210;SDS011;50528;48.514;14.394;2022-08-01T01:04:30;7.70;;;3.00;;
64210;SDS011;50528;48.514;14.394;2022-08-01T01:05:36;4.80;;;3.30;;
64210;SDS011;50528;48.514;14.394;2022-08-01T01:08:24;7.30;;;3.10;;
64210;SDS011;50528;48.514;14.394;2022-08-01T01:11:03;5.20;;;3.20;;
64210;SDS011;50528;48.514;14.394;2022-08-01T01:12:13;4.00;;;3.40;;
64210;SDS011;50528;48.514;14.394;2022-08-01T01:16:25;3.60;;;3.20;;
64210;SDS011;50528;48.514;14.394;2022-08-01T01:17:36;5.80;;;3.70;;
64210;SDS011;50528;48.514;14.394;2022-08-01T01:19:01;5.80;;;3.30;;
64210;SDS011;50528;48.514;14.394;2022-08-01T01:20:07;4.40;;;3.40;;
64210;SDS011;50528;48.514;14.394;2022-08-01T01:22:33;4.20;;;3.10;;
64210;SDS011;50528;48.514;14.394;2022-08-01T01:25:19;4.80;;;3.20;;
64210;SDS011;50528;48.514;14.394;2022-08-01T01:27:49;4.00;;;3.10;;
64210;SDS011;50528;48.514;14.394;2022-08-01T01:29:03;4.30;;;2.90;;
64210;SDS011;50528;48.514;14.394;2022-08-01T01:30:23;4.60;;;2.90;;
64210;SDS011;50528;48.514;14.394;2022-08-01T01:31:31;5.30;;;3.20;;
64210;SDS011;50528;48.514;14.394;2022-08-01T01:32:44;4.00;;;3.20;;
64210;SDS011;50528;48.514;14.394;2022-08-01T01:33:51;6.00;;;3.00;;
64210;SDS011;50528;48.514;14.394;2022-08-01T01:34:56;6.80;;;3.10;;
64210;SDS011;50528;48.514;14.394;2022-08-01T01:36:03;5.70;;;3.20;;
64210;SDS011;50528;48.514;14.394;2022-08-01T01:37:17;4.30;;;2.80;;
64210;SDS011;50528;48.514;14.394;2022-08-01T01:38:24;3.50;;;2.90;;
64210;SDS011;50528;48.514;14.394;2022-08-01T01:39:32;4.40;;;3.00;;
64210;SDS011;50528;48.514;14.394;2022-08-01T01:40:39;4.90;;;2.80;;
64210;SDS011;50528;48.514;14.394;2022-08-01T01:41:46;3.30;;;2.70;;
64210;SDS011;50528;48.514;14.394;2022-08-01T01:42:51;5.70;;;3.10;;
64210;SDS011;50528;48.514;14.394;2022-08-01T01:43:58;5.30;;;3.10;;
64210;SDS011;50528;48.514;14.394;2022-08-01T01:45:04;4.00;;;2.80;;
64210;SDS011;50528;48.514;14.394;2022-08-01T01:46:11;5.90;;;3.00;;
64210;SDS011;50528;48.514;14.394;2022-08-01T01:47:18;4.40;;;2.60;;
64210;SDS011;50528;48.514;14.394;2022-08-01T01:48:22;3.30;;;2.60;;
64210;SDS011;50528;48.514;14.394;2022-08-01T01:49:28;4.00;;;2.90;;
64210;SDS011;50528;48.514;14.394;2022-08-01T01:50:34;3.90;;;3.00;;
64210;SDS011;50528;48.514;14.394;2022-08-01T01:51:39;5.30;;;2.70;;
64210;SDS011;50528;48.514;14.394;2022-08-01T01:53:04;6.30;;;2.80;;
64210;SDS011;50528;48.514;14.394;2022-08-01T01:54:16;4.80;;;2.80;;
64210;SDS011;50528;48.514;14.394;2022-08-01T01:55:21;3.60;;;2.90;;
64210;SDS011;50528;48.514;14.394;2022-08-01T01:56:29;8.30;;;3.40;;
64210;SDS011;50528;48.514;14.394;2022-08-01T01:57:36;4.70;;;2.80;;
64210;SDS011;50528;48.514;14.394;2022-08-01T01:58:43;6.00;;;2.70;;
64210;SDS011;50528;48.514;14.394;2022-08-01T01:59:48;3.60;;;2.70;;
64210;SDS011;50528;48.514;14.394;2022-08-01T02:00:55;5.20;;;3.10;;
64210;SDS011;50528;48.514;14.394;2022-08-01T02:02:04;5.60;;;3.30;;
64210;SDS011;50528;48.514;14.394;2022-08-01T02:03:10;9.90;;;3.50;;
64210;SDS011;50528;48.514;14.394;2022-08-01T02:04:15;6.80;;;3.10;;
64210;SDS011;50528;48.514;14.394;2022-08-01T02:05:19;5.00;;;3.00;;
64210;SDS011;50528;48.514;14.394;2022-08-01T02:06:24;4.10;;;3.30;;
64210;SDS011;50528;48.514;14.394;2022-08-01T02:07:29;4.20;;;3.00;;
64210;SDS011;50528;48.514;14.394;2022-08-01T02:08:34;4.60;;;3.30;;
64210;SDS011;50528;48.514;14.394;2022-08-01T02:09:41;6.60;;;3.30;;
64210;SDS011;50528;48.514;14.394;2022-08-01T02:10:45;5.10;;;3.60;;
64210;SDS011;50528;48.514;14.394;2022-08-01T02:12:12;3.70;;;2.90;;
64210;SDS011;50528;48.514;14.394;2022-08-01T02:13:17;7.20;;;3.10;;
64210;SDS011;50528;48.514;14.394;2022-08-01T02:14:22;6.50;;;2.80;;
64210;SDS011;50528;48.514;14.394;2022-08-01T02:15:27;3.90;;;2.80;;
64210;SDS011;50528;48.514;14.394;2022-08-01T02:16:35;5.80;;;3.00;;
64210;SDS011;50528;48.514;14.394;2022-08-01T02:17:43;4.10;;;3.10;;
64210;SDS011;50528;48.514;14.394;2022-08-01T02:18:49;3.40;;;2.90;;
64210;SDS011;50528;48.514;14.394;2022-08-01T02:19:53;4.50;;;2.90;;
64210;SDS011;50528;48.514;14.394;2022-08-01T02:20:59;4.90;;;3.00;;
64210;SDS011;50528;48.514;14.394;2022-08-01T02:22:11;4.50;;;2.80;;
64210;SDS011;50528;48.514;14.394;2022-08-01T02:23:23;6.60;;;3.00;;
64210;SDS011;50528;48.514;14.394;2022-08-01T02:24:37;4.80;;;3.00;;
64210;SDS011;50528;48.514;14.394;2022-08-01T02:25:46;4.70;;;2.80;;
64210;SDS011;50528;48.514;14.394;2022-08-01T02:27:14;4.60;;;3.20;;
64210;SDS011;50528;48.514;14.394;2022-08-01T02:28:35;4.60;;;2.90;;
64210;SDS011;50528;48.514;14.394;2022-08-01T02:29:45;5.20;;;3.30;;
64210;SDS011;50528;48.514;14.394;2022-08-01T02:30:56;3.90;;;3.10;;
64210;SDS011;50528;48.514;14.394;2022-08-01T02:32:04;4.90;;;3.30;;
64210;SDS011;50528;48.514;14.394;2022-08-01T02:33:18;4.80;;;3.10;;
64210;SDS011;50528;48.514;14.394;2022-08-01T02:34:24;6.20;;;3.40;;
64210;SDS011;50528;48.514;14.394;2022-08-01T02:35:35;5.30;;;3.00;;
64210;SDS011;50528;48.514;14.394;2022-08-01T02:37:09;4.10;;;3.10;;
64210;SDS011;50528;48.514;14.394;2022-08-01T02:38:12;4.10;;;3.10;;
64210;SDS011;50528;48.514;14.394;2022-08-01T02:39:18;5.80;;;3.20;;
64210;SDS011;50528;48.514;14.394;2022-08-01T02:40:25;4.20;;;3.30;;
64210;SDS011;50528;48.514;14.394;2022-08-01T02:41:38;6.60;;;3.50;;
64210;SDS011;50528;48.514;14.394;2022-08-01T02:42:47;6.00;;;3.80;;
64210;SDS011;50528;48.514;14.394;2022-08-01T02:43:55;6.40;;;3.50;;
64210;SDS011;50528;48.514;14.394;2022-08-01T02:45:04;5.10;;;3.40;;
64210;SDS011;50528;48.514;14.394;2022-08-01T02:46:20;6.60;;;3.20;;
64210;SDS011;50528;48.514;14.394;2022-08-01T02:47:26;3.60;;;3.10;;
64210;SDS011;50528;48.514;14.394;2022-08-01T02:48:35;5.30;;;3.60;;
64210;SDS011;50528;48.514;14.394;2022-08-01T02:49:45;4.40;;;3.50;;
64210;SDS011;50528;48.514;14.394;2022-08-01T02:50:56;6.00;;;3.70;;
64210;SDS011;50528;48.514;14.394;2022-08-01T02:52:04;5.70;;;3.70;;
64210;SDS011;50528;48.514;14.394;2022-08-01T02:53:11;4.50;;;3.50;;
64210;SDS011;50528;48.514;14.394;2022-08-01T02:54:16;5.60;;;3.50;;
64210;SDS011;50528;48.514;14.394;2022-08-01T02:55:21;4.30;;;3.40;;
64210;SDS011;50528;48.514;14.394;2022-08-01T02:56:25;5.60;;;3.60;;
64210;SDS011;50528;48.514;14.394;2022-08-01T02:57:37;5.10;;;3.70;;
64210;SDS011;50528;48.514;14.394;2022-08-01T02:58:54;5.70;;;3.60;;
64210;SDS011;50528;48.514;14.394;2022-08-01T02:59:57;4.40;;;3.80;;
64210;SDS011;50528;48.514;14.394;2022-08-01T03:01:03;7.30;;;4.00;;
64210;SDS011;50528;48.514;14.394;2022-08-01T03:02:09;6.80;;;3.40;;
64210;SDS011;50528;48.514;14.394;2022-08-01T03:03:14;7.30;;;3.80;;
64210;SDS011;50528;48.514;14.394;2022-08-01T03:04:19;4.50;;;3.70;;
64210;SDS011;50528;48.514;14.394;2022-08-01T03:05:24;5.00;;;3.30;;
64210;SDS011;50528;48.514;14.394;2022-08-01T03:06:29;7.00;;;3.60;;
64210;SDS011;50528;48.514;14.394;2022-08-01T03:07:33;5.80;;;3.60;;
64210;SDS011;50528;48.514;14.394;2022-08-01T03:08:42;4.80;;;3.60;;
64210;SDS011;50528;48.514;14.394;2022-08-01T03:09:46;6.00;;;3.60;;
64210;SDS011;50528;48.514;14.394;2022-08-01T03:10:51;6.40;;;3.50;;
64210;SDS011;50528;48.514;14.394;2022-08-01T03:11:57;5.20;;;3.70;;
64210;SDS011;50528;48.514;14.394;2022-08-01T03:13:04;5.50;;;3.60;;
64210;SDS011;50528;48.514;14.394;2022-08-01T03:14:09;4.30;;;3.30;;
64210;SDS011;50528;48.514;14.394;2022-08-01T03:15:14;4.80;;;3.60;;
64210;SDS011;50528;48.514;14.394;2022-08-01T03:16:20;4.80;;;3.60;;
64210;SDS011;50528;48.514;14.394;2022-08-01T03:17:27;6.00;;;3.70;;
64210;SDS011;50528;48.514;14.394;2022-08-01T03:18:32;5.60;;;3.50;;
64210;SDS011;50528;48.514;14.394;2022-08-01T03:19:37;4.40;;;3.30;;
64210;SDS011;50528;48.514;14.394;2022-08-01T03:20:41;4.70;;;3.40;;
64210;SDS011;50528;48.514;14.394;2022-08-01T03:24:49;4.40;;;3.20;;
64210;SDS011;50528;48.514;14.394;2022-08-01T03:25:55;7.60;;;3.40;;
64210;SDS011;50528;48.514;14.394;2022-08-01T03:27:01;4.10;;;3.30;;
64210;SDS011;50528;48.514;14.394;2022-08-01T03:28:05;4.90;;;3.50;;
64210;SDS011;50528;48.514;14.394;2022-08-01T03:29:12;5.00;;;3.80;;
64210;SDS011;50528;48.514;14.394;2022-08-01T03:30:18;5.90;;;3.60;;
64210;SDS011;50528;48.514;14.394;2022-08-01T03:31:24;5.10;;;3.40;;
64210;SDS011;50528;48.514;14.394;2022-08-01T03:32:28;4.50;;;3.20;;
64210;SDS011;50528;48.514;14.394;2022-08-01T03:33:33;5.00;;;3.30;;
64210;SDS011;50528;48.514;14.394;2022-08-01T03:34:36;4.50;;;3.50;;
64210;SDS011;50528;48.514;14.394;2022-08-01T03:35:46;4.60;;;3.20;;
64210;SDS011;50528;48.514;14.394;2022-08-01T03:37:02;5.30;;;3.50;;
64210;SDS011;50528;48.514;14.394;2022-08-01T03:38:27;4.40;;;3.20;;
64210;SDS011;50528;48.514;14.394;2022-08-01T03:39:38;6.60;;;3.40;;
64210;SDS011;50528;48.514;14.394;2022-08-01T03:40:49;5.40;;;3.40;;
64210;SDS011;50528;48.514;14.394;2022-08-01T03:42:01;5.80;;;3.50;;
64210;SDS011;50528;48.514;14.394;2022-08-01T03:43:15;3.90;;;3.10;;
64210;SDS011;50528;48.514;14.394;2022-08-01T03:44:24;7.10;;;3.40;;
64210;SDS011;50528;48.514;14.394;2022-08-01T03:45:32;7.10;;;3.30;;
64210;SDS011;50528;48.514;14.394;2022-08-01T03:46:52;5.00;;;3.30;;
64210;SDS011;50528;48.514;14.394;2022-08-01T03:48:02;5.10;;;2.90;;
64210;SDS011;50528;48.514;14.394;2022-08-01T03:49:17;5.10;;;3.50;;
64210;SDS011;50528;48.514;14.394;2022-08-01T03:50:24;9.30;;;3.70;;
64210;SDS011;50528;48.514;14.394;2022-08-01T03:51:29;4.40;;;3.40;;
64210;SDS011;50528;48.514;14.394;2022-08-01T03:52:34;4.10;;;3.40;;
64210;SDS011;50528;48.514;14.394;2022-08-01T03:53:41;4.50;;;3.50;;
64210;SDS011;50528;48.514;14.394;2022-08-01T03:54:48;5.10;;;3.50;;
64210;SDS011;50528;48.514;14.394;2022-08-01T03:55:55;5.40;;;3.60;;
64210;SDS011;50528;48.514;14.394;2022-08-01T03:57:01;4.40;;;3.40;;
64210;SDS011;50528;48.514;14.394;2022-08-01T03:58:05;6.00;;;3.30;;
64210;SDS011;50528;48.514;14.394;2022-08-01T03:59:11;5.10;;;3.20;;
64210;SDS011;50528;48.514;14.394;2022-08-01T04:00:15;5.60;;;3.10;;
64210;SDS011;50528;48.514;14.394;2022-08-01T04:01:21;5.10;;;3.30;;
64210;SDS011;50528;48.514;14.394;2022-08-01T04:02:25;4.70;;;3.20;;
64210;SDS011;50528;48.514;14.394;2022-08-01T04:03:29;6.60;;;3.10;;
64210;SDS011;50528;48.514;14.394;2022-08-01T04:04:33;4.90;;;3.20;;
64210;SDS011;50528;48.514;14.394;2022-08-01T04:05:36;5.60;;;3.20;;
64210;SDS011;50528;48.514;14.394;2022-08-01T04:06:40;4.60;;;3.20;;
64210;SDS011;50528;48.514;14.394;2022-08-01T04:07:47;4.90;;;3.00;;
64210;SDS011;50528;48.514;14.394;2022-08-01T04:08:58;3.90;;;3.10;;
64210;SDS011;50528;48.514;14.394;2022-08-01T04:10:01;5.90;;;3.40;;
64210;SDS011;50528;48.514;14.394;2022-08-01T04:11:11;5.40;;;3.50;;
64210;SDS011;50528;48.514;14.394;2022-08-01T04:12:14;5.20;;;3.10;;
64210;SDS011;50528;48.514;14.394;2022-08-01T04:13:17;4.10;;;3.10;;
64210;SDS011;50528;48.514;14.394;2022-08-01T04:14:21;4.90;;;3.20;;
64210;SDS011;50528;48.514;14.394;2022-08-01T04:15:24;6.30;;;3.40;;
64210;SDS011;50528;48.514;14.394;2022-08-01T04:16:27;4.20;;;3.40;;
64210;SDS011;50528;48.514;14.394;2022-08-01T04:17:31;5.50;;;3.20;;
64210;SDS011;50528;48.514;14.394;2022-08-01T04:18:34;6.40;;;3.30;;
64210;SDS011;50528;48.514;14.394;2022-08-01T04:19:37;6.90;;;3.20;;
64210;SDS011;50528;48.514;14.394;2022-08-01T04:20:40;5.40;;;3.20;;
64210;SDS011;50528;48.514;14.394;2022-08-01T04:21:44;6.60;;;3.00;;
64210;SDS011;50528;48.514;14.394;2022-08-01T04:22:47;5.60;;;3.50;;
64210;SDS011;50528;48.514;14.394;2022-08-01T04:23:50;5.70;;;3.20;;
64210;SDS011;50528;48.514;14.394;2022-08-01T04:24:57;6.00;;;3.10;;
64210;SDS011;50528;48.514;14.394;2022-08-01T04:26:02;6.40;;;3.10;;
64210;SDS011;50528;48.514;14.394;2022-08-01T04:27:11;5.00;;;3.10;;
64210;SDS011;50528;48.514;14.394;2022-08-01T04:28:38;4.20;;;3.60;;
64210;SDS011;50528;48.514;14.394;2022-08-01T04:29:47;4.80;;;3.30;;
64210;SDS011;50528;48.514;14.394;2022-08-01T04:30:54;5.50;;;3.10;;
64210;SDS011;50528;48.514;14.394;2022-08-01T04:32:03;5.30;;;2.80;;
64210;SDS011;50528;48.514;14.394;2022-08-01T04:33:11;4.40;;;3.30;;
64210;SDS011;50528;48.514;14.394;2022-08-01T04:34:20;5.00;;;3.30;;
64210;SDS011;50528;48.514;14.394;2022-08-01T04:35:28;5.00;;;3.10;;
64210;SDS011;50528;48.514;14.394;2022-08-01T04:36:53;4.10;;;3.20;;
64210;SDS011;50528;48.514;14.394;2022-08-01T04:37:58;4.00;;;3.40;;
64210;SDS011;50528;48.514;14.394;2022-08-01T04:39:04;5.00;;;3.40;;
64210;SDS011;50528;48.514;14.394;2022-08-01T04:40:09;4.10;;;3.10;;
64210;SDS011;50528;48.514;14.394;2022-08-01T04:41:13;3.90;;;3.20;;
64210;SDS011;50528;48.514;14.394;2022-08-01T04:42:20;5.20;;;3.50;;
64210;SDS011;50528;48.514;14.394;2022-08-01T04:43:35;4.00;;;3.20;;
64210;SDS011;50528;48.514;14.394;2022-08-01T04:44:41;5.40;;;3.10;;
64210;SDS011;50528;48.514;14.394;2022-08-01T04:45:45;5.30;;;3.40;;
64210;SDS011;50528;48.514;14.394;2022-08-01T04:46:50;4.80;;;3.50;;
64210;SDS011;50528;48.514;14.394;2022-08-01T04:48:06;5.40;;;3.20;;
64210;SDS011;50528;48.514;14.394;2022-08-01T04:49:11;3.90;;;3.20;;
64210;SDS011;50528;48.514;14.394;2022-08-01T04:50:15;5.10;;;3.30;;
64210;SDS011;50528;48.514;14.394;2022-08-01T04:51:21;6.50;;;3.50;;
64210;SDS011;50528;48.514;14.394;2022-08-01T04:52:32;4.40;;;3.20;;
64210;SDS011;50528;48.514;14.394;2022-08-01T04:53:36;4.30;;;3.20;;
64210;SDS011;50528;48.514;14.394;2022-08-01T04:54:39;4.10;;;3.20;;
64210;SDS011;50528;48.514;14.394;2022-08-01T04:55:43;4.80;;;3.40;;
64210;SDS011;50528;48.514;14.394;2022-08-01T04:56:46;6.80;;;3.40;;
64210;SDS011;50528;48.514;14.394;2022-08-01T04:57:53;4.30;;;3.20;;
64210;SDS011;50528;48.514;14.394;2022-08-01T04:58:56;6.80;;;3.40;;
64210;SDS011;50528;48.514;14.394;2022-08-01T05:00:21;4.50;;;3.40;;
64210;SDS011;50528;48.514;14.394;2022-08-01T05:01:25;6.60;;;3.50;;
64210;SDS011;50528;48.514;14.394;2022-08-01T05:02:28;5.20;;;3.50;;
64210;SDS011;50528;48.514;14.394;2022-08-01T05:03:31;5.10;;;3.60;;
64210;SDS011;50528;48.514;14.394;2022-08-01T05:04:42;5.20;;;3.30;;
64210;SDS011;50528;48.514;14.394;2022-08-01T05:05:46;5.90;;;3.40;;
64210;SDS011;50528;48.514;14.394;2022-08-01T05:06:49;6.20;;;3.40;;
64210;SDS011;50528;48.514;14.394;2022-08-01T05:07:52;5.60;;;3.50;;
64210;SDS011;50528;48.514;14.394;2022-08-01T05:08:55;4.80;;;3.10;;
64210;SDS011;50528;48.514;14.394;2022-08-01T05:09:58;5.50;;;3.50;;
64210;SDS011;50528;48.514;14.394;2022-08-01T05:11:01;5.40;;;3.70;;
64210;SDS011;50528;48.514;14.394;2022-08-01T05:12:05;6.10;;;3.50;;
64210;SDS011;50528;48.514;14.394;2022-08-01T05:13:11;3.90;;;3.10;;
64210;SDS011;50528;48.514;14.394;2022-08-01T05:14:18;6.00;;;3.30;;
64210;SDS011;50528;48.514;14.394;2022-08-01T05:15:21;5.10;;;3.20;;
64210;SDS011;50528;48.514;14.394;2022-08-01T05:16:24;6.40;;;3.70;;
64210;SDS011;50528;48.514;14.394;2022-08-01T05:17:28;6.50;;;3.50;;
64210;SDS011;50528;48.514;14.394;2022-08-01T05:18:31;5.10;;;3.30;;
64210;SDS011;50528;48.514;14.394;2022-08-01T05:19:34;6.20;;;3.80;;
64210;SDS011;50528;48.514;14.394;2022-08-01T05:20:39;5.50;;;3.50;;
64210;SDS011;50528;48.514;14.394;2022-08-01T05:21:44;5.80;;;3.50;;
64210;SDS011;50528;48.514;14.394;2022-08-01T05:22:47;6.10;;;3.60;;
64210;SDS011;50528;48.514;14.394;2022-08-01T05:23:52;6.80;;;3.90;;
64210;SDS011;50528;48.514;14.394;2022-08-01T05:24:56;8.40;;;3.70;;
64210;SDS011;50528;48.514;14.394;2022-08-01T05:26:00;5.70;;;3.60;;
64210;SDS011;50528;48.514;14.394;2022-08-01T05:27:04;6.20;;;3.80;;
64210;SDS011;50528;48.514;14.394;2022-08-01T05:28:09;6.40;;;3.80;;
64210;SDS011;50528;48.514;14.394;2022-08-01T05:29:12;5.90;;;3.60;;
64210;SDS011;50528;48.514;14.394;2022-08-01T05:30:17;5.10;;;3.70;;
64210;SDS011;50528;48.514;14.394;2022-08-01T05:31:20;6.00;;;3.70;;
64210;SDS011;50528;48.514;14.394;2022-08-01T05:32:23;7.60;;;3.50;;
64210;SDS011;50528;48.514;14.394;2022-08-01T05:33:26;5.10;;;3.40;;
64210;SDS011;50528;48.514;14.394;2022-08-01T05:34:29;5.90;;;3.50;;
64210;SDS011;50528;48.514;14.394;2022-08-01T05:35:32;7.00;;;3.90;;
64210;SDS011;50528;48.514;14.394;2022-08-01T05:36:50;7.70;;;3.70;;
64210;SDS011;50528;48.514;14.394;2022-08-01T05:37:59;5.40;;;3.60;;
64210;SDS011;50528;48.514;14.394;2022-08-01T05:39:03;7.30;;;3.60;;
64210;SDS011;50528;48.514;14.394;2022-08-01T05:40:08;6.00;;;3.40;;
64210;SDS011;50528;48.514;14.394;2022-08-01T05:41:11;6.70;;;3.40;;
64210;SDS011;50528;48.514;14.394;2022-08-01T05:42:14;4.90;;;3.30;;
64210;SDS011;50528;48.514;14.394;2022-08-01T05:43:18;4.60;;;3.50;;
64210;SDS011;50528;48.514;14.394;2022-08-01T05:44:21;7.20;;;3.50;;
64210;SDS011;50528;48.514;14.394;2022-08-01T05:45:24;5.10;;;3.30;;
64210;SDS011;50528;48.514;14.394;2022-08-01T05:46:27;6.50;;;3.40;;
64210;SDS011;50528;48.514;14.394;2022-08-01T05:47:33;5.90;;;3.60;;
64210;SDS011;50528;48.514;14.394;2022-08-01T05:48:36;5.00;;;3.90;;
64210;SDS011;50528;48.514;14.394;2022-08-01T05:49:39;5.90;;;3.80;;
64210;SDS011;50528;48.514;14.394;2022-08-01T05:50:42;4.90;;;4.00;;
64210;SDS011;50528;48.514;14.394;2022-08-01T05:51:46;8.80;;;4.40;;
64210;SDS011;50528;48.514;14.394;2022-08-01T05:52:49;6.40;;;4.10;;
64210;SDS011;50528;48.514;14.394;2022-08-01T05:53:52;6.80;;;4.20;;
64210;SDS011;50528;48.514;14.394;2022-08-01T05:54:59;6.80;;;4.40;;
64210;SDS011;50528;48.514;14.394;2022-08-01T05:56:02;8.00;;;4.40;;
64210;SDS011;50528;48.514;14.394;2022-08-01T05:57:07;5.50;;;4.30;;
64210;SDS011;50528;48.514;14.394;2022-08-01T05:58:14;6.60;;;4.30;;
64210;SDS011;50528;48.514;14.394;2022-08-01T05:59:17;6.60;;;4.10;;
64210;SDS011;50528;48.514;14.394;2022-08-01T06:00:20;5.10;;;4.00;;
64210;SDS011;50528;48.514;14.394;2022-08-01T06:01:24;6.40;;;4.30;;
64210;SDS011;50528;48.514;14.394;2022-08-01T06:02:27;8.00;;;4.00;;
64210;SDS011;50528;48.514;14.394;2022-08-01T06:03:30;6.70;;;4.20;;
64210;SDS011;50528;48.514;14.394;2022-08-01T06:04:35;5.60;;;3.80;;
64210;SDS011;50528;48.514;14.394;2022-08-01T06:05:39;5.40;;;3.80;;
64210;SDS011;50528;48.514;14.394;2022-08-01T06:06:42;5.30;;;3.80;;
64210;SDS011;50528;48.514;14.394;2022-08-01T06:07:45;4.40;;;3.60;;
64210;SDS011;50528;48.514;14.394;2022-08-01T06:08:49;5.50;;;3.50;;
64210;SDS011;50528;48.514;14.394;2022-08-01T06:09:53;6.20;;;3.70;;
64210;SDS011;50528;48.514;14.394;2022-08-01T06:10:56;8.10;;;3.70;;
64210;SDS011;50528;48.514;14.394;2022-08-01T06:12:01;6.10;;;3.80;;
64210;SDS011;50528;48.514;14.394;2022-08-01T06:13:06;5.30;;;3.40;;
64210;SDS011;50528;48.514;14.394;2022-08-01T06:14:12;6.20;;;4.00;;
64210;SDS011;50528;48.514;14.394;2022-08-01T06:15:18;5.10;;;3.40;;
64210;SDS011;50528;48.514;14.394;2022-08-01T06:16:21;7.00;;;3.70;;
64210;SDS011;50528;48.514;14.394;2022-08-01T06:17:25;7.70;;;3.60;;
64210;SDS011;50528;48.514;14.394;2022-08-01T06:18:28;5.30;;;3.90;;
64210;SDS011;50528;48.514;14.394;2022-08-01T06:19:31;6.40;;;4.00;;
64210;SDS011;50528;48.514;14.394;2022-08-01T06:20:35;5.90;;;3.80;;
64210;SDS011;50528;48.514;14.394;2022-08-01T06:21:41;5.00;;;3.80;;
64210;SDS011;50528;48.514;14.394;2022-08-01T06:22:44;5.70;;;3.50;;
64210;SDS011;50528;48.514;14.394;2022-08-01T06:23:54;5.50;;;3.80;;
64210;SDS011;50528;48.514;14.394;2022-08-01T06:24:57;4.90;;;3.60;;
64210;SDS011;50528;48.514;14.394;2022-08-01T06:26:00;5.00;;;3.70;;
64210;SDS011;50528;48.514;14.394;2022-08-01T06:27:04;4.80;;;3.90;;
64210;SDS011;50528;48.514;14.394;2022-08-01T06:28:23;4.50;;;3.70;;
64210;SDS011;50528;48.514;14.394;2022-08-01T06:29:27;5.00;;;3.60;;
64210;SDS011;50528;48.514;14.394;2022-08-01T06:30:32;5.30;;;3.70;;
64210;SDS011;50528;48.514;14.394;2022-08-01T06:31:35;7.50;;;3.70;;
64210;SDS011;50528;48.514;14.394;2022-08-01T06:32:39;7.70;;;3.70;;
64210;SDS011;50528;48.514;14.394;2022-08-01T06:33:42;7.60;;;3.30;;
64210;SDS011;50528;48.514;14.394;2022-08-01T06:34:45;6.10;;;3.50;;
64210;SDS011;50528;48.514;14.394;2022-08-01T06:35:48;4.80;;;3.70;;
64210;SDS011;50528;48.514;14.394;2022-08-01T06:36:52;5.60;;;3.50;;
64210;SDS011;50528;48.514;14.394;2022-08-01T06:37:55;6.10;;;3.30;;
64210;SDS011;50528;48.514;14.394;2022-08-01T06:38:59;4.70;;;3.30;;
64210;SDS011;50528;48.514;14.394;2022-08-01T06:40:03;6.70;;;3.70;;
64210;SDS011;50528;48.514;14.394;2022-08-01T06:41:12;4.10;;;3.40;;
64210;SDS011;50528;48.514;14.394;2022-08-01T06:42:18;5.70;;;3.70;;
64210;SDS011;50528;48.514;14.394;2022-08-01T06:43:21;7.20;;;3.70;;
64210;SDS011;50528;48.514;14.394;2022-08-01T06:44:24;5.00;;;3.50;;
64210;SDS011;50528;48.514;14.394;2022-08-01T06:45:27;5.00;;;3.70;;
64210;SDS011;50528;48.514;14.394;2022-08-01T06:46:30;7.00;;;3.50;;
64210;SDS011;50528;48.514;14.394;2022-08-01T06:47:37;4.90;;;3.50;;